Delta Virtual Airport Information Service

Mexico City International Airport

ICAO: MMMX Country: Mexico
Latitude: 19.4363 Longitude: -99.072
Latest Arrival : AMX1669 (KSFO-MMMX) Latest Departure : DAC4045 (MMMX-MPTO)


WX CaptureLIVE
Data provided by noaa.gov | Fetched at 18:40:11

METAR : MMMX 242253Z 18006KT 8SM SCT020TCU 26/02 A3012 NOSIG RMK 8/200 HZY AC

TAF : MMMX 241633Z 2418/2524 19010KT P6SM SCT020 SCT120 TX29/2422Z TN16/2511Z FM242200 22008G18KT P6SM VC CB SCT020 BKN100 BKN200 FM250200 20010KT P6SM SCT100 FM250500 13005KT P6SM SKC FM251700 11005KT P6SM SCT100 BECMG 2521/2522 19015KT SCT020 BKN100


Runway Data for MMMX
Data provided by openaviationdata.com

Runway ID Mag Var Hdg Length Elevation Surface ILS Freq ILS Id ILS Slope
05L 7 52° 12966 ft 7314 ft Asphalt -- -- --
05R 7 52° 12795 ft 7314 ft Asphalt 109.1 IMWX 3
23L 7 232° 12795 ft 7314 ft Asphalt 109.7 IMEX 3
23R 7 232° 12966 ft 7314 ft Asphalt -- -- --

Mexico City International Airport, Mexico
Use only for reference purposes



Not for navigational purposes.